Time;durP1;ratioP1;P1;durP2;ratioP2;P2;SDS_P1;SDS_P2;PMS_P1;PMS_P2;Temp;Humidity;BMP_temperature;BMP_pressure;BME280_temperature;BME280_humidity;BME280_pressure;Samples;Min_cycle;Max_cycle;Signal;HPM_P1;HPM_P2
2024/04/20 00:00:03;;;;;;;;;;;;;;;17.36;48.57;100222.13;5386808;26;1869;-55
2024/04/20 00:02:29;;;;;;;;;;;;;;;17.29;49.49;100210.66;5386720;26;1184;-52
2024/04/20 00:04:55;;;;;;;;;;;;;;;16.69;49.20;100209.03;5386461;26;978;-52
2024/04/20 00:07:20;;;;;;;;;;;;;;;17.82;49.17;100200.69;5387414;26;1612;-54
2024/04/20 00:09:46;;;;;;;;;;;;;;;16.93;49.71;100186.34;5386598;26;1227;-57
2024/04/20 00:12:11;;;;;;;;;;;;;;;16.72;48.78;100186.50;5386494;26;1302;-53
2024/04/20 00:14:37;;;;;;;;;;;;;;;16.50;48.17;100177.91;5386847;26;1187;-53
2024/04/20 00:17:02;;;;;;;;;;;;;;;16.47;47.45;100173.00;5386896;26;1374;-55
2024/04/20 00:19:28;;;;;;;;;;;;;;;16.31;47.02;100167.63;5386918;26;1208;-55
2024/04/20 00:21:53;;;;;;;;;;;;;;;16.79;48.58;100155.13;5386273;26;1861;-55
2024/04/20 00:24:19;;;;;;;;;;;;;;;16.41;48.26;100147.50;5386970;26;1180;-54
2024/04/20 00:26:44;;;;;;;;;;;;;;;16.32;47.40;100152.81;5386494;26;1192;-54
2024/04/20 00:29:11;;;;;;;;;;;;;;;16.21;46.81;100143.03;5384874;26;1065;-53
2024/04/20 00:31:36;;;;;;;;;;;;;;;17.39;48.22;100144.59;5386330;26;1193;-53
2024/04/20 00:34:02;;;;;;;;;;;;;;;16.63;48.98;100144.28;5386881;26;1514;-52
2024/04/20 00:36:27;;;;;;;;;;;;;;;16.43;48.17;100142.56;5386817;26;1298;-53
2024/04/20 00:38:55;;;;;;;;;;;;;;;16.60;48.02;100144.88;5386295;26;1339;-55
2024/04/20 00:41:21;;;;;;;;;;;;;;;16.72;48.89;100126.09;5385673;26;1825;-55
2024/04/20 00:43:46;;;;;;;;;;;;;;;16.45;48.24;100123.06;5386214;26;1179;-52
2024/04/20 00:46:12;;;;;;;;;;;;;;;17.08;48.53;100125.75;5386336;26;1306;-53
2024/04/20 00:48:37;;;;;;;;;;;;;;;16.74;49.04;100134.03;5386420;26;1371;-54
2024/04/20 00:51:03;;;;;;;;;;;;;;;16.50;48.56;100128.53;5386043;26;1228;-53
2024/04/20 00:53:29;;;;;;;;;;;;;;;17.11;48.65;100129.84;5355064;26;1044;-51
2024/04/20 00:55:54;;;;;;;;;;;;;;;16.67;48.88;100128.88;5355541;26;1490;-54
2024/04/20 00:58:20;;;;;;;;;;;;;;;16.43;48.29;100137.88;5386234;26;1145;-53
2024/04/20 01:00:45;;;;;;;;;;;;;;;16.33;47.38;100140.72;5354497;26;1827;-51
2024/04/20 01:03:11;;;;;;;;;;;;;;;17.52;48.05;100137.56;5386174;26;1317;-54
2024/04/20 01:05:37;;;;;;;;;;;;;;;16.57;48.95;100132.56;5385341;26;1068;-51
2024/04/20 01:08:03;;;;;;;;;;;;;;;16.47;48.06;100138.16;5386078;26;1354;-53
2024/04/20 01:10:29;;;;;;;;;;;;;;;16.27;47.40;100146.53;5386111;26;1179;-53
2024/04/20 01:13:02;;;;;;;;;;;;;;;16.22;47.02;100136.44;5385693;26;1176;-53
2024/04/20 01:15:28;;;;;;;;;;;;;;;16.06;46.69;100130.22;5385416;26;1224;-52
2024/04/20 01:17:54;;;;;;;;;;;;;;;16.86;47.45;100148.19;5385585;26;1283;-52
2024/04/20 01:20:19;;;;;;;;;;;;;;;16.40;47.80;100134.91;5385053;26;1825;-53
2024/04/20 01:22:45;;;;;;;;;;;;;;;16.13;47.51;100135.41;5385731;26;1330;-54
2024/04/20 01:25:11;;;;;;;;;;;;;;;16.66;47.79;100132.75;5385796;26;1188;-54
2024/04/20 01:27:37;;;;;;;;;;;;;;;16.60;48.47;100128.41;5354599;26;1179;-53
2024/04/20 01:30:03;;;;;;;;;;;;;;;16.32;47.72;100110.84;5385652;26;1283;-56
2024/04/20 01:32:29;;;;;;;;;;;;;;;16.18;47.29;100110.69;5385042;26;1183;-55
2024/04/20 01:34:54;;;;;;;;;;;;;;;17.41;47.76;100105.81;5385541;26;1258;-54
2024/04/20 01:37:20;;;;;;;;;;;;;;;16.55;48.60;100109.25;5385585;26;1354;-55
2024/04/20 01:39:46;;;;;;;;;;;;;;;16.28;48.02;100104.28;5385022;26;1873;-53
2024/04/20 01:42:11;;;;;;;;;;;;;;;16.47;48.03;100101.66;5384496;26;1129;-53
2024/04/20 01:44:37;;;;;;;;;;;;;;;17.04;48.65;100099.97;5385431;26;1216;-55
2024/04/20 01:47:02;;;;;;;;;;;;;;;16.52;48.50;100099.69;5385505;26;1366;-56
2024/04/20 01:49:28;;;;;;;;;;;;;;;16.25;48.10;100089.22;5385540;26;1188;-55
2024/04/20 01:51:53;;;;;;;;;;;;;;;17.20;48.44;100091.53;5384609;26;1172;-54
2024/04/20 01:54:19;;;;;;;;;;;;;;;16.79;49.09;100084.56;5385310;26;1289;-53
2024/04/20 01:56:44;;;;;;;;;;;;;;;16.49;48.57;100080.22;5385673;26;1258;-54
2024/04/20 01:59:10;;;;;;;;;;;;;;;17.34;48.72;100069.66;5385424;26;1422;-54
2024/04/20 02:01:41;;;;;;;;;;;;;;;16.60;49.05;100068.84;5384585;26;1861;-52
2024/04/20 02:04:06;;;;;;;;;;;;;;;16.49;47.95;100066.50;5385058;26;1346;-52
2024/04/20 02:06:32;;;;;;;;;;;;;;;17.68;48.43;100061.16;5385387;26;1574;-55
2024/04/20 02:08:58;;;;;;;;;;;;;;;16.88;49.28;100049.88;5385384;26;1188;-54
2024/04/20 02:11:23;;;;;;;;;;;;;;;16.56;48.58;100045.00;5385183;26;1211;-54
2024/04/20 02:13:49;;;;;;;;;;;;;;;16.57;48.17;100038.44;5385054;26;1283;-55
2024/04/20 02:16:14;;;;;;;;;;;;;;;17.17;48.78;100034.44;5384513;26;1180;-53
2024/04/20 02:18:42;;;;;;;;;;;;;;;16.65;48.63;100035.03;5384879;26;1263;-55
2024/04/20 02:21:09;;;;;;;;;;;;;;;16.47;47.92;100027.56;5385028;26;1818;-54
2024/04/20 02:23:37;;;;;;;;;;;;;;;16.29;47.37;100038.16;5384633;26;1154;-54
2024/04/20 02:26:02;;;;;;;;;;;;;;;17.16;48.02;100035.53;5384778;26;1355;-53
2024/04/20 02:28:28;;;;;;;;;;;;;;;16.65;48.49;100032.28;5384391;26;1376;-53
2024/04/20 02:30:54;;;;;;;;;;;;;;;16.43;47.87;100025.38;5384880;26;1192;-55
2024/04/20 02:33:19;;;;;;;;;;;;;;;17.62;48.14;100016.44;5384754;26;1211;-50
2024/04/20 02:35:45;;;;;;;;;;;;;;;16.85;48.86;100013.94;5384503;26;1278;-51
2024/04/20 02:38:10;;;;;;;;;;;;;;;16.51;48.25;100015.72;5384262;26;1232;-54
2024/04/20 02:40:37;;;;;;;;;;;;;;;16.41;47.31;100022.13;5384126;26;1856;-54
2024/04/20 02:43:03;;;;;;;;;;;;;;;17.32;48.03;100016.91;5383825;26;1168;-54
2024/04/20 02:45:28;;;;;;;;;;;;;;;16.62;48.51;100021.06;5384181;26;1172;-54
2024/04/20 02:47:54;;;;;;;;;;;;;;;16.43;47.90;100019.91;5384504;26;1244;-54
2024/04/20 02:50:20;;;;;;;;;;;;;;;16.29;47.36;100029.13;5384276;26;1269;-52
2024/04/20 02:52:46;;;;;;;;;;;;;;;17.10;47.96;100013.63;5384268;26;1211;-51
2024/04/20 02:55:12;;;;;;;;;;;;;;;16.56;48.10;100023.91;5387666;26;1364;-54
2024/04/20 02:57:37;;;;;;;;;;;;;;;16.33;47.61;100025.50;5388005;26;1224;-54
2024/04/20 03:00:03;;;;;;;;;;;;;;;17.07;48.33;100025.22;5387577;26;1830;-53
2024/04/20 03:02:29;;;;;;;;;;;;;;;16.61;48.30;100017.53;5387267;26;1252;-55
2024/04/20 03:04:54;;;;;;;;;;;;;;;16.45;47.41;100021.53;5387076;26;1136;-54
2024/04/20 03:07:21;;;;;;;;;;;;;;;16.52;47.67;100022.84;5387398;26;1168;-54
2024/04/20 03:09:47;;;;;;;;;;;;;;;16.88;48.48;100029.81;5387507;26;1251;-55
2024/04/20 03:12:14;;;;;;;;;;;;;;;16.71;48.69;100033.84;5387303;26;1364;-53
2024/04/20 03:14:39;;;;;;;;;;;;;;;18.33;47.48;100032.06;5386985;26;1299;-54
2024/04/20 03:17:05;;;;;;;;;;;;;;;17.14;49.13;100032.25;5387267;26;1278;-52
2024/04/20 03:19:30;;;;;;;;;;;;;;;16.77;48.74;100012.66;5387676;26;1278;-54
2024/04/20 03:21:56;;;;;;;;;;;;;;;16.54;48.15;100003.34;5387084;26;1820;-53
2024/04/20 03:24:21;;;;;;;;;;;;;;;16.42;47.43;100011.97;5386741;26;1204;-49
2024/04/20 03:26:47;;;;;;;;;;;;;;;17.24;48.14;100007.41;5387169;26;1259;-51
2024/04/20 03:29:12;;;;;;;;;;;;;;;16.64;48.49;100014.19;5387633;26;1255;-52
2024/04/20 03:31:38;;;;;;;;;;;;;;;16.45;47.83;100018.78;5387058;26;1295;-52
2024/04/20 03:34:04;;;;;;;;;;;;;;;16.83;47.93;100018.91;5387548;26;1240;-52
2024/04/20 03:36:29;;;;;;;;;;;;;;;16.68;48.81;100020.72;5386686;26;1184;-53
2024/04/20 03:38:55;;;;;;;;;;;;;;;16.59;48.73;100014.22;5387032;26;1271;-53
2024/04/20 03:41:20;;;;;;;;;;;;;;;17.87;48.01;100017.16;5386940;26;1829;-53
2024/04/20 03:43:46;;;;;;;;;;;;;;;16.89;49.24;100018.56;5386745;26;1204;-51
2024/04/20 03:46:12;;;;;;;;;;;;;;;16.62;48.50;100002.69;5386825;26;1167;-57
2024/04/20 03:48:37;;;;;;;;;;;;;;;17.03;48.93;100007.69;5387207;26;1180;-57
2024/04/20 03:51:03;;;;;;;;;;;;;;;16.98;49.23;99999.50;5387047;26;1256;-55
2024/04/20 03:53:28;;;;;;;;;;;;;;;16.67;48.45;100008.09;5386645;26;1300;-56
2024/04/20 03:55:54;;;;;;;;;;;;;;;16.34;48.06;100010.69;5386212;26;1266;-56
2024/04/20 03:58:19;;;;;;;;;;;;;;;16.41;47.09;100022.13;5387119;26;1183;-55
2024/04/20 04:00:45;;;;;;;;;;;;;;;16.32;46.62;100017.56;5386945;26;1853;-56
2024/04/20 04:03:44;;;;;;;;;;;;;;;16.74;47.42;100019.53;5386712;26;1263;-54
2024/04/20 04:06:02;;;;;;;;;;;;;;;15.95;50.00;100025.31;5382883;26;1338;-55
2024/04/20 04:08:28;;;;;;;;;;;;;;;16.49;49.03;100017.09;5386907;26;1280;-51
2024/04/20 04:10:54;;;;;;;;;;;;;;;16.42;49.13;100023.78;5386062;26;1499;-55
2024/04/20 04:13:19;;;;;;;;;;;;;;;16.23;49.69;100028.34;5383315;26;1859;-55
2024/04/20 04:15:45;;;;;;;;;;;;;;;16.12;50.16;100030.38;5380038;26;1195;-54
2024/04/20 04:18:10;;;;;;;;;;;;;;;15.99;50.49;100031.88;5368011;26;1292;-51
2024/04/20 04:20:36;;;;;;;;;;;;;;;16.19;50.11;100035.53;5373264;26;1869;-53
2024/04/20 04:23:02;;;;;;;;;;;;;;;17.67;46.37;100029.31;5375703;26;1489;-55
2024/04/20 04:25:30;;;;;;;;;;;;;;;16.86;48.36;100032.06;5374468;26;2691;-56
2024/04/20 04:27:57;;;;;;;;;;;;;;;16.43;49.52;100030.06;5370487;26;1355;-55
2024/04/20 04:30:23;;;;;;;;;;;;;;;16.17;50.19;100034.97;5372127;26;1366;-55
2024/04/20 04:32:48;;;;;;;;;;;;;;;16.08;50.64;100029.31;5376447;26;1342;-54
2024/04/20 04:35:14;;;;;;;;;;;;;;;16.48;49.87;100015.47;5370533;26;1304;-57
2024/04/20 04:37:39;;;;;;;;;;;;;;;17.88;46.32;100012.44;5371858;26;1453;-55
2024/04/20 04:40:05;;;;;;;;;;;;;;;16.98;48.45;100021.47;5385791;26;1886;-55
2024/04/20 04:42:30;;;;;;;;;;;;;;;16.54;49.63;100019.81;5384828;26;1197;-53
2024/04/20 04:44:56;;;;;;;;;;;;;;;16.31;50.41;100024.94;5385866;26;1307;-54
2024/04/20 04:47:22;;;;;;;;;;;;;;;16.25;50.61;100023.38;5385569;26;1287;-54
2024/04/20 04:49:48;;;;;;;;;;;;;;;17.70;47.08;100006.72;5374856;26;1399;-51
2024/04/20 04:52:13;;;;;;;;;;;;;;;16.87;49.10;100017.19;5373465;26;1279;-54
2024/04/20 04:54:39;;;;;;;;;;;;;;;16.49;50.16;100006.13;5374669;26;2647;-56
2024/04/20 04:57:04;;;;;;;;;;;;;;;16.28;50.69;100003.59;5349298;26;1271;-53
2024/04/20 04:59:30;;;;;;;;;;;;;;;16.89;49.46;100004.03;5371963;26;1318;-54
2024/04/20 05:01:55;;;;;;;;;;;;;;;17.61;47.46;100005.75;5368156;26;1871;-55
2024/04/20 05:04:21;;;;;;;;;;;;;;;16.82;49.56;99992.56;5369657;26;1366;-53
2024/04/20 05:06:46;;;;;;;;;;;;;;;16.48;50.54;99993.50;5369828;26;1331;-54
2024/04/20 05:09:12;;;;;;;;;;;;;;;16.30;50.96;99989.59;5375106;26;1504;-55
2024/04/20 05:11:38;;;;;;;;;;;;;;;16.17;51.27;99993.84;5384815;26;1516;-55
2024/04/20 05:14:03;;;;;;;;;;;;;;;16.84;49.99;99990.34;5385346;26;1306;-58
2024/04/20 05:16:29;;;;;;;;;;;;;;;17.77;47.38;99990.63;5367405;26;1417;-55
2024/04/20 05:18:54;;;;;;;;;;;;;;;16.87;49.68;99990.56;5380920;26;1183;-56
2024/04/20 05:21:20;;;;;;;;;;;;;;;16.55;50.53;99977.50;5384890;26;1829;-55
2024/04/20 05:23:45;;;;;;;;;;;;;;;16.31;51.20;99978.31;5384972;26;1266;-55
2024/04/20 05:26:11;;;;;;;;;;;;;;;16.20;51.40;99976.78;5373272;26;1240;-56
2024/04/20 05:28:37;;;;;;;;;;;;;;;16.03;51.85;99977.25;5384669;26;1267;-54
2024/04/20 05:31:02;;;;;;;;;;;;;;;17.36;48.99;99966.56;5384462;26;1071;-55
2024/04/20 05:33:29;;;;;;;;;;;;;;;17.48;48.27;99948.78;5360309;26;1788;-55
2024/04/20 05:35:54;;;;;;;;;;;;;;;16.74;50.34;99952.84;5384983;26;1219;-53
2024/04/20 05:38:20;;;;;;;;;;;;;;;16.46;51.04;99963.63;5384775;26;1152;-55
2024/04/20 05:40:46;;;;;;;;;;;;;;;16.25;51.58;99968.53;5384957;26;1818;-55
2024/04/20 05:43:11;;;;;;;;;;;;;;;16.80;50.64;99959.09;5384190;26;1087;-55
2024/04/20 05:45:38;;;;;;;;;;;;;;;17.74;47.85;99963.75;5385148;26;1222;-56
2024/04/20 05:48:03;;;;;;;;;;;;;;;16.87;50.13;99965.88;5384776;26;1326;-56
2024/04/20 05:50:29;;;;;;;;;;;;;;;16.58;50.87;99965.97;5384452;26;1582;-54
2024/04/20 05:52:55;;;;;;;;;;;;;;;16.37;51.43;99966.19;5384548;26;1196;-57
2024/04/20 05:55:20;;;;;;;;;;;;;;;16.74;50.86;99967.38;5407526;26;2667;-55
2024/04/20 05:57:46;;;;;;;;;;;;;;;17.76;48.13;99957.94;5384663;26;1251;-56
2024/04/20 06:00:11;;;;;;;;;;;;;;;16.91;50.38;99957.88;5384307;26;1857;-56
2024/04/20 06:02:40;;;;;;;;;;;;;;;16.50;51.26;99952.88;5384200;26;1138;-55
2024/04/20 06:05:05;;;;;;;;;;;;;;;16.34;51.93;99950.31;5384757;26;1434;-53
2024/04/20 06:07:33;;;;;;;;;;;;;;;16.17;52.06;99960.94;5383959;26;1071;-55
2024/04/20 06:09:59;;;;;;;;;;;;;;;16.67;51.26;99963.38;5383589;26;1255;-55
2024/04/20 06:12:25;;;;;;;;;;;;;;;17.98;47.84;99968.31;5384117;26;1469;-55
2024/04/20 06:14:51;;;;;;;;;;;;;;;17.04;50.19;99976.38;5384144;26;1152;-57
2024/04/20 06:17:16;;;;;;;;;;;;;;;16.65;51.15;99977.41;5384175;26;1309;-55
2024/04/20 06:19:42;;;;;;;;;;;;;;;16.42;51.79;99974.38;5383475;26;1234;-56
2024/04/20 06:22:07;;;;;;;;;;;;;;;16.30;51.83;99964.91;5384009;26;1822;-55
2024/04/20 06:24:35;;;;;;;;;;;;;;;16.11;52.44;99968.38;5384184;26;2805;-54
2024/04/20 06:27:01;;;;;;;;;;;;;;;17.22;50.07;99979.41;5384087;26;1260;-57
2024/04/20 06:29:26;;;;;;;;;;;;;;;17.55;48.78;99962.97;5386822;26;1287;-57
2024/04/20 06:31:52;;;;;;;;;;;;;;;16.79;50.91;99968.44;5386958;26;1064;-56
2024/04/20 06:34:18;;;;;;;;;;;;;;;16.45;51.88;99972.94;5387637;26;1223;-56
2024/04/20 06:36:43;;;;;;;;;;;;;;;16.36;52.09;99981.00;5387415;26;1223;-56
2024/04/20 06:39:08;;;;;;;;;;;;;;;16.12;52.60;99977.41;5387113;26;1124;-55
2024/04/20 06:41:34;;;;;;;;;;;;;;;17.38;49.78;99969.81;5387180;26;1833;-54
2024/04/20 06:44:00;;;;;;;;;;;;;;;17.62;48.87;99974.41;5386754;26;1171;-55
2024/04/20 06:46:26;;;;;;;;;;;;;;;16.85;50.87;99983.75;5387300;26;1153;-54
2024/04/20 06:48:55;;;;;;;;;;;;;;;16.54;51.76;99978.63;5387142;26;1163;-54
2024/04/20 06:51:21;;;;;;;;;;;;;;;16.35;52.12;99973.88;5387135;26;1217;-54
2024/04/20 06:53:46;;;;;;;;;;;;;;;16.44;52.15;99982.31;5386940;26;2748;-55
2024/04/20 06:56:12;;;;;;;;;;;;;;;17.82;48.61;99973.22;5386900;26;1040;-56
2024/04/20 06:58:41;;;;;;;;;;;;;;;17.02;50.54;99964.84;5387004;26;1254;-55
2024/04/20 07:01:07;;;;;;;;;;;;;;;16.55;51.67;99967.34;5387283;26;1830;-53
2024/04/20 07:03:34;;;;;;;;;;;;;;;16.34;52.35;99961.28;5379515;26;1247;-52
2024/04/20 07:06:00;;;;;;;;;;;;;;;16.17;52.72;99964.50;5367391;26;1277;-53
2024/04/20 07:08:25;;;;;;;;;;;;;;;17.24;50.25;99955.22;5367379;26;1266;-54
2024/04/20 07:10:59;;;;;;;;;;;;;;;17.80;48.61;99950.72;5386888;26;1175;-56
2024/04/20 07:13:25;;;;;;;;;;;;;;;16.86;51.07;99950.50;5386522;26;1320;-56
2024/04/20 07:15:50;;;;;;;;;;;;;;;16.55;51.90;99956.38;5386809;26;1272;-55
2024/04/20 07:18:16;;;;;;;;;;;;;;;16.30;52.61;99946.53;5386418;26;1283;-56
2024/04/20 07:20:42;;;;;;;;;;;;;;;16.29;52.63;99944.88;5386778;26;1825;-55
2024/04/20 07:23:07;;;;;;;;;;;;;;;17.47;50.04;99958.16;5386696;26;1246;-56
2024/04/20 07:25:33;;;;;;;;;;;;;;;17.35;50.13;99964.09;5387130;26;2859;-54
2024/04/20 07:27:58;;;;;;;;;;;;;;;16.71;51.65;99965.22;5386587;26;1349;-56
2024/04/20 07:30:24;;;;;;;;;;;;;;;16.45;52.37;99972.16;5386271;26;1256;-56
2024/04/20 07:32:49;;;;;;;;;;;;;;;16.30;52.86;99971.22;5387164;26;1277;-56
2024/04/20 07:35:15;;;;;;;;;;;;;;;16.67;52.17;99975.16;5386760;26;1231;-56
2024/04/20 07:37:40;;;;;;;;;;;;;;;17.88;48.91;99965.69;5386590;26;1363;-55
2024/04/20 07:40:06;;;;;;;;;;;;;;;16.96;51.24;99971.53;5385779;26;1830;-56
2024/04/20 07:42:32;;;;;;;;;;;;;;;16.53;52.28;99975.06;5385639;26;1160;-57
2024/04/20 07:44:57;;;;;;;;;;;;;;;16.40;52.65;99968.34;5386582;26;1180;-55
2024/04/20 07:47:23;;;;;;;;;;;;;;;16.65;52.33;99971.91;5386492;26;1273;-56
2024/04/20 07:49:48;;;;;;;;;;;;;;;17.87;49.09;99983.34;5386251;26;1175;-56
2024/04/20 07:52:14;;;;;;;;;;;;;;;16.99;51.33;99981.91;5386457;26;1148;-57
2024/04/20 07:54:39;;;;;;;;;;;;;;;16.67;52.08;99988.88;5385691;26;2811;-55
2024/04/20 07:57:05;;;;;;;;;;;;;;;16.46;52.67;99982.03;5386283;26;1273;-55
2024/04/20 07:59:30;;;;;;;;;;;;;;;16.31;52.93;99978.31;5385896;26;1235;-56
2024/04/20 08:01:57;;;;;;;;;;;;;;;17.73;49.52;99973.09;5386292;26;1853;-55
2024/04/20 08:04:22;;;;;;;;;;;;;;;17.11;51.03;99970.50;5385781;26;1228;-55
2024/04/20 08:06:48;;;;;;;;;;;;;;;16.66;52.17;99973.53;5385886;26;1267;-54
2024/04/20 08:09:13;;;;;;;;;;;;;;;16.43;52.57;99967.75;5385873;26;1295;-55
2024/04/20 08:11:39;;;;;;;;;;;;;;;16.32;53.09;99966.25;5385736;26;1420;-55
2024/04/20 08:14:04;;;;;;;;;;;;;;;17.82;49.58;99975.16;5386134;26;1236;-57
2024/04/20 08:16:30;;;;;;;;;;;;;;;17.10;51.12;99968.88;5386219;26;1279;-52
2024/04/20 08:18:55;;;;;;;;;;;;;;;16.63;52.24;99976.06;5385808;26;1152;-52
2024/04/20 08:21:21;;;;;;;;;;;;;;;16.46;52.70;99979.28;5385940;26;1830;-51
2024/04/20 08:23:46;;;;;;;;;;;;;;;16.23;53.02;99976.25;5385264;26;2730;-55
2024/04/20 08:26:12;;;;;;;;;;;;;;;16.86;51.93;99974.41;5385830;26;1271;-54
2024/04/20 08:28:38;;;;;;;;;;;;;;;17.81;49.32;99979.03;5385249;26;1343;-53
2024/04/20 08:31:03;;;;;;;;;;;;;;;16.89;51.62;99960.09;5385246;26;1449;-55
2024/04/20 08:33:29;;;;;;;;;;;;;;;16.59;52.26;99956.59;5385770;26;1205;-52
2024/04/20 08:35:54;;;;;;;;;;;;;;;16.32;53.07;99960.75;5385888;26;1117;-53
2024/04/20 08:38:20;;;;;;;;;;;;;;;16.28;53.20;99969.88;5385605;26;1200;-57
2024/04/20 08:40:45;;;;;;;;;;;;;;;16.18;53.48;99973.53;5384802;26;1829;-54
2024/04/20 08:43:11;;;;;;;;;;;;;;;17.71;49.99;99969.00;5353672;26;1256;-56
2024/04/20 08:45:36;;;;;;;;;;;;;;;17.10;51.14;99966.13;5384982;26;1248;-56
2024/04/20 08:48:02;;;;;;;;;;;;;;;16.60;52.51;99969.22;5354323;26;1592;-56
2024/04/20 08:50:27;;;;;;;;;;;;;;;16.42;52.83;99971.63;5383706;26;1298;-56
2024/04/20 08:52:53;;;;;;;;;;;;;;;16.22;53.07;99977.34;5354180;26;1300;-56
2024/04/20 08:55:18;;;;;;;;;;;;;;;17.47;50.67;99982.88;5384973;26;2646;-56
2024/04/20 08:57:46;;;;;;;;;;;;;;;17.32;50.83;99993.00;5354664;26;1497;-56
2024/04/20 09:00:12;;;;;;;;;;;;;;;16.74;51.99;99994.84;5385310;26;1825;-56
2024/04/20 09:02:42;;;;;;;;;;;;;;;16.43;52.93;99991.66;5385086;26;1258;-54
2024/04/20 09:05:08;;;;;;;;;;;;;;;16.26;53.20;99989.38;5338561;26;1307;-55
2024/04/20 09:07:33;;;;;;;;;;;;;;;16.53;53.00;99980.53;5384255;26;1335;-54
2024/04/20 09:09:59;;;;;;;;;;;;;;;17.93;49.35;99971.94;5384610;26;1323;-55
2024/04/20 09:12:24;;;;;;;;;;;;;;;17.07;51.37;99986.75;5384421;26;1614;-56
2024/04/20 09:14:53;;;;;;;;;;;;;;;16.71;52.34;99981.69;5384630;26;1228;-54
2024/04/20 09:17:19;;;;;;;;;;;;;;;16.45;52.91;99978.44;5384396;26;1490;-52
2024/04/20 09:19:48;;;;;;;;;;;;;;;16.21;53.34;99971.00;5353407;26;1332;-53
2024/04/20 09:22:13;;;;;;;;;;;;;;;17.03;51.92;99961.00;5384230;26;1829;-56
2024/04/20 09:24:39;;;;;;;;;;;;;;;17.81;49.64;99957.88;5384382;26;2581;-56
2024/04/20 09:27:05;;;;;;;;;;;;;;;16.92;51.83;99959.50;5384423;26;1307;-55
2024/04/20 09:29:30;;;;;;;;;;;;;;;16.65;52.53;99960.09;5384168;26;1292;-53
2024/04/20 09:31:56;;;;;;;;;;;;;;;16.34;53.17;99957.72;5353082;26;1301;-55
2024/04/20 09:34:23;;;;;;;;;;;;;;;16.30;53.60;99948.44;5384298;26;1264;-57
2024/04/20 09:36:48;;;;;;;;;;;;;;;17.85;49.82;99952.56;5384248;26;1336;-56
2024/04/20 09:39:14;;;;;;;;;;;;;;;17.12;51.50;99952.91;5384525;26;1421;-55
2024/04/20 09:41:39;;;;;;;;;;;;;;;16.69;52.47;99950.16;5384871;26;1830;-55
2024/04/20 09:44:05;;;;;;;;;;;;;;;16.45;53.02;99951.00;5353439;26;1267;-54
2024/04/20 09:46:32;;;;;;;;;;;;;;;16.30;53.31;99954.75;5384323;26;1219;-54
2024/04/20 09:48:58;;;;;;;;;;;;;;;16.19;53.61;99958.72;5384908;26;1226;-58
2024/04/20 09:51:24;;;;;;;;;;;;;;;17.69;50.36;99952.03;5353996;26;1145;-58
2024/04/20 09:53:55;;;;;;;;;;;;;;;17.28;51.17;99935.06;5384608;26;2756;-55
2024/04/20 09:56:21;;;;;;;;;;;;;;;16.72;52.47;99950.41;5384212;26;1168;-55
2024/04/20 09:58:48;;;;;;;;;;;;;;;16.47;53.03;99948.00;5384383;26;1307;-53
2024/04/20 10:01:13;;;;;;;;;;;;;;;16.36;53.20;99944.53;5384949;26;1864;-57
2024/04/20 10:03:39;;;;;;;;;;;;;;;17.69;50.28;99939.06;5383839;26;1232;-56
2024/04/20 10:06:05;;;;;;;;;;;;;;;17.07;51.65;99931.81;5353950;26;1113;-55
2024/04/20 10:08:31;;;;;;;;;;;;;;;16.59;52.90;99929.97;5383561;26;1319;-57
2024/04/20 10:10:57;;;;;;;;;;;;;;;16.48;53.02;99927.66;5384652;26;1117;-57
2024/04/20 10:13:22;;;;;;;;;;;;;;;16.90;52.58;99926.00;5353255;26;1481;-58
2024/04/20 10:15:48;;;;;;;;;;;;;;;17.82;49.88;99920.16;5347578;26;1125;-57
2024/04/20 10:18:13;;;;;;;;;;;;;;;16.96;51.81;99921.25;5353012;26;1125;-58
2024/04/20 10:20:40;;;;;;;;;;;;;;;16.61;52.71;99910.47;5383849;26;1822;-58
2024/04/20 10:23:12;;;;;;;;;;;;;;;16.38;53.28;99904.72;5383904;26;1171;-59
2024/04/20 10:25:38;;;;;;;;;;;;;;;16.34;53.62;99887.22;5384528;26;2982;-59
2024/04/20 10:28:03;;;;;;;;;;;;;;;17.88;49.96;99888.69;5384021;26;1343;-59
2024/04/20 10:30:30;;;;;;;;;;;;;;;17.24;51.29;99878.28;5384090;26;1128;-58
2024/04/20 10:33:08;;;;;;;;;;;;;;;16.70;52.67;99878.50;5383963;26;1124;-54
2024/04/20 10:35:34;;;;;;;;;;;;;;;16.45;53.24;99881.59;5383862;26;1321;-58
2024/04/20 10:38:02;;;;;;;;;;;;;;;16.30;53.33;99869.72;5383812;26;1377;-57
2024/04/20 10:40:30;;;;;;;;;;;;;;;17.04;52.27;99861.00;5383969;26;1833;-58
2024/04/20 10:42:55;;;;;;;;;;;;;;;17.77;50.07;99855.91;5383760;26;1208;-58
2024/04/20 10:45:21;;;;;;;;;;;;;;;16.90;52.24;99855.47;5383353;26;1116;-56
2024/04/20 10:47:46;;;;;;;;;;;;;;;16.57;53.15;99860.03;5353252;26;1149;-55
2024/04/20 10:50:14;;;;;;;;;;;;;;;16.35;53.42;99858.66;5383788;26;1251;-56
2024/04/20 10:52:40;;;;;;;;;;;;;;;16.25;53.72;99873.31;5383597;26;1238;-56
2024/04/20 10:55:13;;;;;;;;;;;;;;;17.64;50.61;99864.13;5383675;26;2663;-56
2024/04/20 10:57:38;;;;;;;;;;;;;;;17.17;51.65;99855.88;5382432;26;1272;-56
2024/04/20 11:00:04;;;;;;;;;;;;;;;16.62;53.15;99848.97;5352735;26;1833;-57
2024/04/20 11:02:30;;;;;;;;;;;;;;;16.46;53.40;99839.31;5383147;26;1128;-56
2024/04/20 11:04:55;;;;;;;;;;;;;;;16.24;53.71;99841.53;5383325;26;1240;-57
2024/04/20 11:07:21;;;;;;;;;;;;;;;16.11;53.88;99841.44;5383254;26;1307;-56
2024/04/20 11:09:47;;;;;;;;;;;;;;;16.99;52.62;99836.38;5382057;26;1179;-54
2024/04/20 11:12:16;;;;;;;;;;;;;;;17.99;49.94;99820.59;5382333;26;1935;-56
2024/04/20 11:14:41;;;;;;;;;;;;;;;17.05;52.12;99815.94;5384530;26;1640;-54
2024/04/20 11:17:07;;;;;;;;;;;;;;;16.59;53.27;99801.00;5386231;26;1339;-55
2024/04/20 11:19:33;;;;;;;;;;;;;;;16.41;53.51;99802.63;5386371;26;1325;-56
2024/04/20 11:21:59;;;;;;;;;;;;;;;17.07;52.40;99797.22;5386324;26;1825;-57
2024/04/20 11:24:28;;;;;;;;;;;;;;;17.64;50.70;99806.38;5386902;26;2718;-57
2024/04/20 11:27:01;;;;;;;;;;;;;;;16.79;52.84;99820.16;5387505;26;1196;-56
2024/04/20 11:29:27;;;;;;;;;;;;;;;16.57;53.31;99818.84;5386977;26;1346;-54
2024/04/20 11:32:01;;;;;;;;;;;;;;;16.36;53.77;99819.13;5386569;26;1221;-55
2024/04/20 11:34:27;;;;;;;;;;;;;;;16.25;53.86;99820.38;5386261;26;1032;-54
2024/04/20 11:36:53;;;;;;;;;;;;;;;16.88;52.91;99826.63;5387406;26;1156;-55
2024/04/20 11:39:18;;;;;;;;;;;;;;;17.85;50.42;99828.81;5386321;26;1156;-52
2024/04/20 11:41:44;;;;;;;;;;;;;;;16.88;52.63;99826.63;5386417;26;1825;-57
2024/04/20 11:44:13;;;;;;;;;;;;;;;16.53;53.38;99834.28;5385037;26;1138;-55
2024/04/20 11:46:41;;;;;;;;;;;;;;;16.39;53.63;99845.19;5386246;26;1234;-55
2024/04/20 11:49:13;;;;;;;;;;;;;;;17.06;52.53;99852.47;5386023;26;1315;-55
2024/04/20 11:54:25;;;;;;;;;;;;;;;16.77;52.95;99837.78;5358647;26;2563;-55
2024/04/20 11:56:53;;;;;;;;;;;;;;;16.61;53.15;99844.59;5385459;26;1296;-56
2024/04/20 11:59:19;;;;;;;;;;;;;;;16.40;53.48;99850.38;5385658;26;1191;-56
2024/04/20 12:01:44;;;;;;;;;;;;;;;16.67;53.49;99843.41;5385602;26;1833;-54
2024/04/20 12:04:12;;;;;;;;;;;;;;;17.94;50.15;99838.81;5385598;26;1354;-53
2024/04/20 12:06:38;;;;;;;;;;;;;;;16.98;52.48;99826.47;5386327;26;1248;-54
2024/04/20 12:09:04;;;;;;;;;;;;;;;16.58;53.29;99828.72;5386160;26;1128;-52
2024/04/20 12:11:29;;;;;;;;;;;;;;;16.40;53.66;99822.13;5385725;26;1287;-52
2024/04/20 12:13:55;;;;;;;;;;;;;;;16.28;53.79;99821.72;5385771;26;1464;-54
2024/04/20 12:16:20;;;;;;;;;;;;;;;16.40;53.87;99828.41;5385807;26;1176;-53
2024/04/20 12:18:46;;;;;;;;;;;;;;;17.83;50.56;99831.06;5386104;26;1208;-55
2024/04/20 12:21:16;;;;;;;;;;;;;;;17.04;52.24;99830.81;5385519;26;1829;-56
2024/04/20 12:23:42;;;;;;;;;;;;;;;16.59;53.26;99852.31;5385428;26;1233;-56
2024/04/20 12:26:08;;;;;;;;;;;;;;;16.35;53.78;99855.91;5384439;26;3136;-55
2024/04/20 12:28:33;;;;;;;;;;;;;;;16.19;53.96;99863.53;5363142;26;1107;-53
2024/04/20 12:31:00;;;;;;;;;;;;;;;16.77;53.23;99872.63;5385866;26;1136;-56
2024/04/20 12:33:26;;;;;;;;;;;;;;;17.97;50.10;99872.34;5385355;26;1247;-56
2024/04/20 12:35:52;;;;;;;;;;;;;;;17.03;52.18;99864.88;5386144;26;1203;-56
2024/04/20 12:38:17;;;;;;;;;;;;;;;16.64;53.10;99865.16;5362596;26;1161;-55
2024/04/20 12:40:43;;;;;;;;;;;;;;;16.34;53.71;99867.19;5385761;26;1825;-54
2024/04/20 12:43:08;;;;;;;;;;;;;;;16.31;53.93;99874.06;5385733;26;1230;-54
2024/04/20 12:45:34;;;;;;;;;;;;;;;17.81;50.54;99867.13;5385027;26;1275;-52
2024/04/20 12:47:59;;;;;;;;;;;;;;;16.98;52.27;99880.59;5348932;26;1180;-57